sensor_id;sensor_type;location;lat;lon;timestamp;temperature;humidity
9125;DHT22;4597;48.730;9.114;2022-10-22T00:01:58;13.90;99.90
9125;DHT22;4597;48.730;9.114;2022-10-22T00:04:24;13.90;99.90
9125;DHT22;4597;48.730;9.114;2022-10-22T00:06:49;13.90;99.90
9125;DHT22;4597;48.730;9.114;2022-10-22T00:09:15;13.90;99.90
9125;DHT22;4597;48.730;9.114;2022-10-22T00:11:41;14.00;99.90
9125;DHT22;4597;48.730;9.114;2022-10-22T00:14:07;14.00;99.90
9125;DHT22;4597;48.730;9.114;2022-10-22T00:16:32;14.00;99.90
9125;DHT22;4597;48.730;9.114;2022-10-22T00:18:58;14.00;99.90
9125;DHT22;4597;48.730;9.114;2022-10-22T00:21:24;14.10;99.90
9125;DHT22;4597;48.730;9.114;2022-10-22T00:23:50;14.00;99.90
9125;DHT22;4597;48.730;9.114;2022-10-22T00:26:15;13.90;99.90
9125;DHT22;4597;48.730;9.114;2022-10-22T00:28:41;13.90;99.90
9125;DHT22;4597;48.730;9.114;2022-10-22T00:31:06;13.80;99.90
9125;DHT22;4597;48.730;9.114;2022-10-22T00:33:33;13.80;99.90
9125;DHT22;4597;48.730;9.114;2022-10-22T00:35:58;13.70;99.90
9125;DHT22;4597;48.730;9.114;2022-10-22T00:38:24;13.70;99.90
9125;DHT22;4597;48.730;9.114;2022-10-22T00:40:49;13.70;99.90
9125;DHT22;4597;48.730;9.114;2022-10-22T00:43:18;13.70;99.90
9125;DHT22;4597;48.730;9.114;2022-10-22T00:45:44;13.80;99.90
9125;DHT22;4597;48.730;9.114;2022-10-22T00:48:14;13.80;99.90
9125;DHT22;4597;48.730;9.114;2022-10-22T00:50:44;13.90;99.90
9125;DHT22;4597;48.730;9.114;2022-10-22T00:53:23;13.90;99.90
9125;DHT22;4597;48.730;9.114;2022-10-22T00:55:52;14.00;99.90
9125;DHT22;4597;48.730;9.114;2022-10-22T00:58:20;14.00;99.90
9125;DHT22;4597;48.730;9.114;2022-10-22T01:00:47;14.00;99.90
9125;DHT22;4597;48.730;9.114;2022-10-22T01:03:13;14.00;99.90
9125;DHT22;4597;48.730;9.114;2022-10-22T01:05:42;14.00;99.90
9125;DHT22;4597;48.730;9.114;2022-10-22T01:08:24;14.00;99.90
9125;DHT22;4597;48.730;9.114;2022-10-22T01:10:58;14.10;99.90
9125;DHT22;4597;48.730;9.114;2022-10-22T01:16:19;14.00;99.90
9125;DHT22;4597;48.730;9.114;2022-10-22T01:22:15;13.90;99.90
9125;DHT22;4597;48.730;9.114;2022-10-22T01:24:57;13.80;99.90
9125;DHT22;4597;48.730;9.114;2022-10-22T01:30:19;13.70;99.90
9125;DHT22;4597;48.730;9.114;2022-10-22T01:32:55;13.70;99.90
9125;DHT22;4597;48.730;9.114;2022-10-22T01:35:28;13.70;99.90
9125;DHT22;4597;48.730;9.114;2022-10-22T01:37:57;13.70;99.90
9125;DHT22;4597;48.730;9.114;2022-10-22T01:40:26;13.70;99.90
9125;DHT22;4597;48.730;9.114;2022-10-22T01:42:57;13.60;99.90
9125;DHT22;4597;48.730;9.114;2022-10-22T01:45:23;13.70;99.90
9125;DHT22;4597;48.730;9.114;2022-10-22T01:53:49;13.90;99.90
9125;DHT22;4597;48.730;9.114;2022-10-22T02:02:01;14.00;99.90
9125;DHT22;4597;48.730;9.114;2022-10-22T02:07:07;14.10;99.90
9125;DHT22;4597;48.730;9.114;2022-10-22T02:09:35;14.00;99.90
9125;DHT22;4597;48.730;9.114;2022-10-22T02:12:04;13.90;99.90
9125;DHT22;4597;48.730;9.114;2022-10-22T02:14:32;14.00;99.90
9125;DHT22;4597;48.730;9.114;2022-10-22T02:16:59;14.00;99.90
9125;DHT22;4597;48.730;9.114;2022-10-22T02:19:27;13.90;99.90
9125;DHT22;4597;48.730;9.114;2022-10-22T02:21:55;14.00;99.90
9125;DHT22;4597;48.730;9.114;2022-10-22T02:24:21;14.00;99.90
9125;DHT22;4597;48.730;9.114;2022-10-22T02:29:17;13.90;99.90
9125;DHT22;4597;48.730;9.114;2022-10-22T02:31:45;13.80;99.90
9125;DHT22;4597;48.730;9.114;2022-10-22T02:34:16;13.80;99.90
9125;DHT22;4597;48.730;9.114;2022-10-22T02:36:44;13.70;99.90
9125;DHT22;4597;48.730;9.114;2022-10-22T02:39:11;13.70;99.90
9125;DHT22;4597;48.730;9.114;2022-10-22T02:41:37;13.70;99.90
9125;DHT22;4597;48.730;9.114;2022-10-22T02:44:08;13.60;99.90
9125;DHT22;4597;48.730;9.114;2022-10-22T02:46:34;13.60;99.90
9125;DHT22;4597;48.730;9.114;2022-10-22T02:49:00;13.60;99.90
9125;DHT22;4597;48.730;9.114;2022-10-22T02:51:25;13.60;99.90
9125;DHT22;4597;48.730;9.114;2022-10-22T02:53:51;13.60;99.90
9125;DHT22;4597;48.730;9.114;2022-10-22T02:56:16;13.50;99.90
9125;DHT22;4597;48.730;9.114;2022-10-22T02:58:42;13.50;99.90
9125;DHT22;4597;48.730;9.114;2022-10-22T03:01:08;13.50;99.90
9125;DHT22;4597;48.730;9.114;2022-10-22T03:03:33;13.40;99.90
9125;DHT22;4597;48.730;9.114;2022-10-22T03:05:59;13.40;99.90
9125;DHT22;4597;48.730;9.114;2022-10-22T03:08:25;13.40;99.90
9125;DHT22;4597;48.730;9.114;2022-10-22T03:10:50;13.40;99.90
9125;DHT22;4597;48.730;9.114;2022-10-22T03:13:16;13.40;99.90
9125;DHT22;4597;48.730;9.114;2022-10-22T03:15:41;13.40;99.90
9125;DHT22;4597;48.730;9.114;2022-10-22T03:18:07;13.40;99.90
9125;DHT22;4597;48.730;9.114;2022-10-22T03:20:32;13.40;99.90
9125;DHT22;4597;48.730;9.114;2022-10-22T03:22:58;13.40;99.90
9125;DHT22;4597;48.730;9.114;2022-10-22T03:25:26;13.40;99.90
9125;DHT22;4597;48.730;9.114;2022-10-22T03:27:52;13.40;99.90
9125;DHT22;4597;48.730;9.114;2022-10-22T03:30:19;13.30;99.90
9125;DHT22;4597;48.730;9.114;2022-10-22T03:32:45;13.30;99.90
9125;DHT22;4597;48.730;9.114;2022-10-22T03:35:10;13.30;99.90
9125;DHT22;4597;48.730;9.114;2022-10-22T03:37:36;13.30;99.90
9125;DHT22;4597;48.730;9.114;2022-10-22T03:40:04;13.20;99.90
9125;DHT22;4597;48.730;9.114;2022-10-22T03:42:31;13.30;99.90
9125;DHT22;4597;48.730;9.114;2022-10-22T03:44:56;13.30;99.90
9125;DHT22;4597;48.730;9.114;2022-10-22T03:47:22;13.30;99.90
9125;DHT22;4597;48.730;9.114;2022-10-22T03:49:51;13.30;99.90
9125;DHT22;4597;48.730;9.114;2022-10-22T03:52:16;13.30;99.90
9125;DHT22;4597;48.730;9.114;2022-10-22T03:54:42;13.30;99.90
9125;DHT22;4597;48.730;9.114;2022-10-22T03:57:08;13.30;99.90
9125;DHT22;4597;48.730;9.114;2022-10-22T03:59:36;13.30;99.90
9125;DHT22;4597;48.730;9.114;2022-10-22T04:02:02;13.40;99.90
9125;DHT22;4597;48.730;9.114;2022-10-22T04:04:27;13.40;99.90
9125;DHT22;4597;48.730;9.114;2022-10-22T04:06:53;13.40;99.90
9125;DHT22;4597;48.730;9.114;2022-10-22T04:09:19;13.40;99.90
9125;DHT22;4597;48.730;9.114;2022-10-22T04:11:44;13.40;99.90
9125;DHT22;4597;48.730;9.114;2022-10-22T04:14:10;13.30;99.90
9125;DHT22;4597;48.730;9.114;2022-10-22T04:16:38;13.30;99.90
9125;DHT22;4597;48.730;9.114;2022-10-22T04:19:03;13.20;99.90
9125;DHT22;4597;48.730;9.114;2022-10-22T04:21:29;13.20;99.90
9125;DHT22;4597;48.730;9.114;2022-10-22T04:23:54;13.10;99.90
9125;DHT22;4597;48.730;9.114;2022-10-22T04:26:20;13.10;99.90
9125;DHT22;4597;48.730;9.114;2022-10-22T04:28:48;13.10;99.90
9125;DHT22;4597;48.730;9.114;2022-10-22T04:31:16;13.10;99.90
9125;DHT22;4597;48.730;9.114;2022-10-22T04:33:42;13.10;99.90
9125;DHT22;4597;48.730;9.114;2022-10-22T04:36:09;13.10;99.90
9125;DHT22;4597;48.730;9.114;2022-10-22T04:38:36;13.10;99.90
9125;DHT22;4597;48.730;9.114;2022-10-22T04:41:13;13.10;99.90
9125;DHT22;4597;48.730;9.114;2022-10-22T04:43:40;13.10;99.90
9125;DHT22;4597;48.730;9.114;2022-10-22T04:46:06;13.10;99.90
9125;DHT22;4597;48.730;9.114;2022-10-22T04:48:34;13.00;99.90
9125;DHT22;4597;48.730;9.114;2022-10-22T04:51:00;13.00;99.90
9125;DHT22;4597;48.730;9.114;2022-10-22T04:53:26;13.00;99.90
9125;DHT22;4597;48.730;9.114;2022-10-22T04:55:52;13.00;99.90
9125;DHT22;4597;48.730;9.114;2022-10-22T04:58:18;12.90;99.90
9125;DHT22;4597;48.730;9.114;2022-10-22T05:00:43;12.90;99.90
9125;DHT22;4597;48.730;9.114;2022-10-22T05:03:09;12.90;99.90
9125;DHT22;4597;48.730;9.114;2022-10-22T05:05:34;12.90;99.90
9125;DHT22;4597;48.730;9.114;2022-10-22T05:08:00;12.90;99.90
9125;DHT22;4597;48.730;9.114;2022-10-22T05:10:25;12.90;99.90
9125;DHT22;4597;48.730;9.114;2022-10-22T05:12:50;12.90;99.90
9125;DHT22;4597;48.730;9.114;2022-10-22T05:15:16;12.80;99.90
9125;DHT22;4597;48.730;9.114;2022-10-22T05:17:42;12.80;99.90
9125;DHT22;4597;48.730;9.114;2022-10-22T05:20:07;12.80;99.90
9125;DHT22;4597;48.730;9.114;2022-10-22T05:22:33;12.80;99.90
9125;DHT22;4597;48.730;9.114;2022-10-22T05:25:00;12.80;99.90
9125;DHT22;4597;48.730;9.114;2022-10-22T05:27:25;12.80;99.90
9125;DHT22;4597;48.730;9.114;2022-10-22T05:29:51;12.80;99.90
9125;DHT22;4597;48.730;9.114;2022-10-22T05:32:17;12.80;99.90
9125;DHT22;4597;48.730;9.114;2022-10-22T05:34:42;12.80;99.90
9125;DHT22;4597;48.730;9.114;2022-10-22T05:37:08;12.80;99.90
9125;DHT22;4597;48.730;9.114;2022-10-22T05:39:33;12.90;99.90
9125;DHT22;4597;48.730;9.114;2022-10-22T05:42:01;12.90;99.90
9125;DHT22;4597;48.730;9.114;2022-10-22T05:44:27;12.90;99.90
9125;DHT22;4597;48.730;9.114;2022-10-22T05:46:52;12.90;99.90
9125;DHT22;4597;48.730;9.114;2022-10-22T05:49:18;12.90;99.90
9125;DHT22;4597;48.730;9.114;2022-10-22T05:51:44;13.00;99.90
9125;DHT22;4597;48.730;9.114;2022-10-22T05:54:20;13.00;99.90
9125;DHT22;4597;48.730;9.114;2022-10-22T05:56:46;13.10;99.90
9125;DHT22;4597;48.730;9.114;2022-10-22T05:59:12;13.10;99.90
9125;DHT22;4597;48.730;9.114;2022-10-22T06:01:38;13.10;99.90
9125;DHT22;4597;48.730;9.114;2022-10-22T06:04:06;13.10;99.90
9125;DHT22;4597;48.730;9.114;2022-10-22T06:06:39;13.10;99.90
9125;DHT22;4597;48.730;9.114;2022-10-22T06:09:29;13.10;99.90
9125;DHT22;4597;48.730;9.114;2022-10-22T06:11:57;13.10;99.90
9125;DHT22;4597;48.730;9.114;2022-10-22T06:14:23;13.10;99.90
9125;DHT22;4597;48.730;9.114;2022-10-22T06:16:50;13.10;99.90
9125;DHT22;4597;48.730;9.114;2022-10-22T06:19:18;13.10;99.90
9125;DHT22;4597;48.730;9.114;2022-10-22T06:21:45;13.20;99.90
9125;DHT22;4597;48.730;9.114;2022-10-22T06:24:11;13.20;99.90
9125;DHT22;4597;48.730;9.114;2022-10-22T06:26:36;13.20;99.90
9125;DHT22;4597;48.730;9.114;2022-10-22T06:29:03;13.20;99.90
9125;DHT22;4597;48.730;9.114;2022-10-22T06:31:28;13.20;99.90
9125;DHT22;4597;48.730;9.114;2022-10-22T06:34:01;13.30;99.90
9125;DHT22;4597;48.730;9.114;2022-10-22T06:36:26;13.30;99.90
9125;DHT22;4597;48.730;9.114;2022-10-22T06:38:53;13.30;99.90
9125;DHT22;4597;48.730;9.114;2022-10-22T06:41:19;13.30;99.90
9125;DHT22;4597;48.730;9.114;2022-10-22T06:43:45;13.30;99.90
9125;DHT22;4597;48.730;9.114;2022-10-22T06:46:13;13.30;99.90
9125;DHT22;4597;48.730;9.114;2022-10-22T06:48:39;13.30;99.90
9125;DHT22;4597;48.730;9.114;2022-10-22T06:51:07;13.30;99.90
9125;DHT22;4597;48.730;9.114;2022-10-22T06:53:34;13.30;99.90
9125;DHT22;4597;48.730;9.114;2022-10-22T06:56:10;13.30;99.90
9125;DHT22;4597;48.730;9.114;2022-10-22T06:58:36;13.30;99.90
9125;DHT22;4597;48.730;9.114;2022-10-22T07:01:08;13.40;99.90
9125;DHT22;4597;48.730;9.114;2022-10-22T07:03:34;13.40;99.90
9125;DHT22;4597;48.730;9.114;2022-10-22T07:06:05;13.40;99.90
9125;DHT22;4597;48.730;9.114;2022-10-22T07:08:32;13.40;99.90
9125;DHT22;4597;48.730;9.114;2022-10-22T07:11:08;13.40;99.90
9125;DHT22;4597;48.730;9.114;2022-10-22T07:13:35;13.40;99.90
9125;DHT22;4597;48.730;9.114;2022-10-22T07:16:00;13.50;99.90
9125;DHT22;4597;48.730;9.114;2022-10-22T07:18:26;13.50;99.90
9125;DHT22;4597;48.730;9.114;2022-10-22T07:20:52;13.50;99.90
9125;DHT22;4597;48.730;9.114;2022-10-22T07:23:17;13.60;99.90
9125;DHT22;4597;48.730;9.114;2022-10-22T07:25:43;13.50;99.90
9125;DHT22;4597;48.730;9.114;2022-10-22T07:28:09;13.60;99.90
9125;DHT22;4597;48.730;9.114;2022-10-22T07:30:36;13.60;99.90
9125;DHT22;4597;48.730;9.114;2022-10-22T07:33:02;13.50;99.90
9125;DHT22;4597;48.730;9.114;2022-10-22T07:35:27;13.50;99.90
9125;DHT22;4597;48.730;9.114;2022-10-22T07:37:53;13.50;99.90
9125;DHT22;4597;48.730;9.114;2022-10-22T07:40:19;13.50;99.90
9125;DHT22;4597;48.730;9.114;2022-10-22T07:42:44;13.60;99.90
9125;DHT22;4597;48.730;9.114;2022-10-22T07:45:10;13.60;99.90
9125;DHT22;4597;48.730;9.114;2022-10-22T07:47:35;13.60;99.90
9125;DHT22;4597;48.730;9.114;2022-10-22T07:50:01;13.70;99.90
9125;DHT22;4597;48.730;9.114;2022-10-22T07:52:26;13.80;99.90
9125;DHT22;4597;48.730;9.114;2022-10-22T07:54:52;13.80;99.90
9125;DHT22;4597;48.730;9.114;2022-10-22T07:57:17;13.80;99.90
9125;DHT22;4597;48.730;9.114;2022-10-22T07:59:43;13.80;99.90
9125;DHT22;4597;48.730;9.114;2022-10-22T08:02:10;13.80;99.90
9125;DHT22;4597;48.730;9.114;2022-10-22T08:04:35;13.80;99.90
9125;DHT22;4597;48.730;9.114;2022-10-22T08:07:01;13.80;99.90
9125;DHT22;4597;48.730;9.114;2022-10-22T08:09:27;13.80;99.90
9125;DHT22;4597;48.730;9.114;2022-10-22T08:11:52;13.80;99.90
9125;DHT22;4597;48.730;9.114;2022-10-22T08:14:19;13.80;99.90
9125;DHT22;4597;48.730;9.114;2022-10-22T08:16:44;13.90;99.90
9125;DHT22;4597;48.730;9.114;2022-10-22T08:19:11;13.90;99.90
9125;DHT22;4597;48.730;9.114;2022-10-22T08:21:38;14.00;99.90
9125;DHT22;4597;48.730;9.114;2022-10-22T08:24:04;14.00;99.90
9125;DHT22;4597;48.730;9.114;2022-10-22T08:26:30;14.10;99.90
9125;DHT22;4597;48.730;9.114;2022-10-22T08:28:56;14.10;99.90
9125;DHT22;4597;48.730;9.114;2022-10-22T08:31:21;14.20;99.90
9125;DHT22;4597;48.730;9.114;2022-10-22T08:33:47;14.30;99.90
9125;DHT22;4597;48.730;9.114;2022-10-22T08:36:12;14.40;99.90
9125;DHT22;4597;48.730;9.114;2022-10-22T08:38:38;14.60;99.90
9125;DHT22;4597;48.730;9.114;2022-10-22T08:41:15;14.70;99.90
9125;DHT22;4597;48.730;9.114;2022-10-22T08:48:56;15.00;99.90
9125;DHT22;4597;48.730;9.114;2022-10-22T08:51:25;15.00;99.90
9125;DHT22;4597;48.730;9.114;2022-10-22T08:56:29;15.10;99.90
9125;DHT22;4597;48.730;9.114;2022-10-22T08:59:03;15.20;99.90
9125;DHT22;4597;48.730;9.114;2022-10-22T09:01:44;15.20;99.90
9125;DHT22;4597;48.730;9.114;2022-10-22T09:06:42;15.30;99.90
9125;DHT22;4597;48.730;9.114;2022-10-22T09:09:14;15.40;99.90
9125;DHT22;4597;48.730;9.114;2022-10-22T09:11:45;15.40;99.90
9125;DHT22;4597;48.730;9.114;2022-10-22T09:14:20;15.40;99.90
9125;DHT22;4597;48.730;9.114;2022-10-22T09:17:10;15.40;99.90
9125;DHT22;4597;48.730;9.114;2022-10-22T09:25:01;15.50;99.90
9125;DHT22;4597;48.730;9.114;2022-10-22T09:27:34;15.60;99.90
9125;DHT22;4597;48.730;9.114;2022-10-22T09:29:59;15.60;99.90
9125;DHT22;4597;48.730;9.114;2022-10-22T09:32:26;15.70;99.90
9125;DHT22;4597;48.730;9.114;2022-10-22T09:34:55;15.80;99.90
9125;DHT22;4597;48.730;9.114;2022-10-22T09:37:25;15.90;99.90
9125;DHT22;4597;48.730;9.114;2022-10-22T09:39:53;16.00;99.90
9125;DHT22;4597;48.730;9.114;2022-10-22T09:42:20;16.10;99.90
9125;DHT22;4597;48.730;9.114;2022-10-22T09:44:53;16.20;99.90
9125;DHT22;4597;48.730;9.114;2022-10-22T09:47:33;16.10;99.90
9125;DHT22;4597;48.730;9.114;2022-10-22T09:50:19;16.20;99.90
9125;DHT22;4597;48.730;9.114;2022-10-22T09:52:57;16.20;99.90
9125;DHT22;4597;48.730;9.114;2022-10-22T09:55:24;16.50;99.90
9125;DHT22;4597;48.730;9.114;2022-10-22T09:57:55;16.50;99.90
9125;DHT22;4597;48.730;9.114;2022-10-22T10:00:21;16.50;99.90
9125;DHT22;4597;48.730;9.114;2022-10-22T10:02:53;16.50;99.90
9125;DHT22;4597;48.730;9.114;2022-10-22T10:05:24;16.40;99.90
9125;DHT22;4597;48.730;9.114;2022-10-22T10:07:50;16.50;99.90
9125;DHT22;4597;48.730;9.114;2022-10-22T10:10:27;16.50;99.90
9125;DHT22;4597;48.730;9.114;2022-10-22T10:22:08;16.70;99.90
9125;DHT22;4597;48.730;9.114;2022-10-22T10:33:02;16.90;99.90
9125;DHT22;4597;48.730;9.114;2022-10-22T10:40:55;17.00;99.90
9125;DHT22;4597;48.730;9.114;2022-10-22T10:46:17;17.20;99.90
9125;DHT22;4597;48.730;9.114;2022-10-22T10:53:59;17.30;99.90
9125;DHT22;4597;48.730;9.114;2022-10-22T11:01:58;17.40;99.90
9125;DHT22;4597;48.730;9.114;2022-10-22T11:07:37;17.40;99.90
9125;DHT22;4597;48.730;9.114;2022-10-22T11:12:46;17.60;99.90
9125;DHT22;4597;48.730;9.114;2022-10-22T11:15:34;17.60;99.90
9125;DHT22;4597;48.730;9.114;2022-10-22T11:18:27;17.70;99.90
9125;DHT22;4597;48.730;9.114;2022-10-22T11:21:06;17.70;99.90
9125;DHT22;4597;48.730;9.114;2022-10-22T11:23:37;17.90;99.90
9125;DHT22;4597;48.730;9.114;2022-10-22T11:26:07;17.90;99.90
9125;DHT22;4597;48.730;9.114;2022-10-22T11:28:46;18.00;99.90
9125;DHT22;4597;48.730;9.114;2022-10-22T11:31:14;18.00;99.90
9125;DHT22;4597;48.730;9.114;2022-10-22T11:34:00;17.90;99.90
9125;DHT22;4597;48.730;9.114;2022-10-22T11:36:29;18.10;99.90
9125;DHT22;4597;48.730;9.114;2022-10-22T11:38:55;18.20;99.90
9125;DHT22;4597;48.730;9.114;2022-10-22T11:41:25;18.30;99.90
9125;DHT22;4597;48.730;9.114;2022-10-22T11:44:00;18.40;99.90
9125;DHT22;4597;48.730;9.114;2022-10-22T11:49:25;18.40;99.90
9125;DHT22;4597;48.730;9.114;2022-10-22T11:51:51;18.40;99.90
9125;DHT22;4597;48.730;9.114;2022-10-22T11:54:39;18.40;99.90
9125;DHT22;4597;48.730;9.114;2022-10-22T11:59:48;18.60;99.90
9125;DHT22;4597;48.730;9.114;2022-10-22T12:04:48;18.70;99.90
9125;DHT22;4597;48.730;9.114;2022-10-22T12:07:44;18.80;99.90
9125;DHT22;4597;48.730;9.114;2022-10-22T12:10:18;18.90;99.90
9125;DHT22;4597;48.730;9.114;2022-10-22T12:12:57;19.00;99.90
9125;DHT22;4597;48.730;9.114;2022-10-22T12:15:28;19.00;99.90
9125;DHT22;4597;48.730;9.114;2022-10-22T12:18:02;19.20;99.90
9125;DHT22;4597;48.730;9.114;2022-10-22T12:20:29;19.30;99.90
9125;DHT22;4597;48.730;9.114;2022-10-22T12:22:56;19.40;99.90
9125;DHT22;4597;48.730;9.114;2022-10-22T12:25:24;19.50;99.90
9125;DHT22;4597;48.730;9.114;2022-10-22T12:27:59;19.60;99.90
9125;DHT22;4597;48.730;9.114;2022-10-22T12:30:35;19.70;99.90
9125;DHT22;4597;48.730;9.114;2022-10-22T12:33:04;19.80;99.90
9125;DHT22;4597;48.730;9.114;2022-10-22T12:35:53;19.80;99.90
9125;DHT22;4597;48.730;9.114;2022-10-22T12:38:22;20.00;99.90
9125;DHT22;4597;48.730;9.114;2022-10-22T12:40:49;20.10;99.90
9125;DHT22;4597;48.730;9.114;2022-10-22T12:43:17;20.20;99.90
9125;DHT22;4597;48.730;9.114;2022-10-22T12:45:45;20.30;99.90
9125;DHT22;4597;48.730;9.114;2022-10-22T12:48:32;20.40;99.90
9125;DHT22;4597;48.730;9.114;2022-10-22T12:51:03;20.50;99.90
9125;DHT22;4597;48.730;9.114;2022-10-22T12:53:37;20.70;99.90
9125;DHT22;4597;48.730;9.114;2022-10-22T12:56:12;21.00;99.90
9125;DHT22;4597;48.730;9.114;2022-10-22T13:01:10;21.20;99.90
9125;DHT22;4597;48.730;9.114;2022-10-22T13:03:41;21.30;99.90
9125;DHT22;4597;48.730;9.114;2022-10-22T13:08:57;21.40;99.90
9125;DHT22;4597;48.730;9.114;2022-10-22T13:11:37;21.50;99.90
9125;DHT22;4597;48.730;9.114;2022-10-22T13:14:04;21.50;99.90
9125;DHT22;4597;48.730;9.114;2022-10-22T13:16:30;21.80;99.90
9125;DHT22;4597;48.730;9.114;2022-10-22T13:18:57;21.80;99.50
9125;DHT22;4597;48.730;9.114;2022-10-22T13:21:37;22.00;97.60
9125;DHT22;4597;48.730;9.114;2022-10-22T13:24:22;22.00;96.40
9125;DHT22;4597;48.730;9.114;2022-10-22T13:26:50;22.20;95.00
9125;DHT22;4597;48.730;9.114;2022-10-22T13:29:19;22.30;92.90
9125;DHT22;4597;48.730;9.114;2022-10-22T13:31:48;22.30;93.60
9125;DHT22;4597;48.730;9.114;2022-10-22T13:34:19;22.30;93.20
9125;DHT22;4597;48.730;9.114;2022-10-22T13:36:47;22.30;92.20
9125;DHT22;4597;48.730;9.114;2022-10-22T13:39:17;22.30;92.80
9125;DHT22;4597;48.730;9.114;2022-10-22T13:41:43;22.30;90.80
9125;DHT22;4597;48.730;9.114;2022-10-22T13:44:09;22.20;90.20
9125;DHT22;4597;48.730;9.114;2022-10-22T13:46:35;22.30;90.70
9125;DHT22;4597;48.730;9.114;2022-10-22T13:49:09;22.30;90.20
9125;DHT22;4597;48.730;9.114;2022-10-22T13:51:38;22.30;87.80
9125;DHT22;4597;48.730;9.114;2022-10-22T13:54:09;22.30;85.60
9125;DHT22;4597;48.730;9.114;2022-10-22T13:56:37;22.40;88.10
9125;DHT22;4597;48.730;9.114;2022-10-22T13:59:03;22.30;88.40
9125;DHT22;4597;48.730;9.114;2022-10-22T14:01:28;22.50;89.20
9125;DHT22;4597;48.730;9.114;2022-10-22T14:03:57;22.60;84.30
9125;DHT22;4597;48.730;9.114;2022-10-22T14:06:25;22.60;81.00
9125;DHT22;4597;48.730;9.114;2022-10-22T14:08:55;22.90;79.60
9125;DHT22;4597;48.730;9.114;2022-10-22T14:11:23;22.90;77.00
9125;DHT22;4597;48.730;9.114;2022-10-22T14:13:49;23.10;76.60
9125;DHT22;4597;48.730;9.114;2022-10-22T14:16:20;23.20;79.40
9125;DHT22;4597;48.730;9.114;2022-10-22T14:18:46;23.50;78.40
9125;DHT22;4597;48.730;9.114;2022-10-22T14:21:14;23.40;73.70
9125;DHT22;4597;48.730;9.114;2022-10-22T14:23:41;23.30;74.60
9125;DHT22;4597;48.730;9.114;2022-10-22T14:26:17;23.50;79.70
9125;DHT22;4597;48.730;9.114;2022-10-22T14:28:45;23.50;76.50
9125;DHT22;4597;48.730;9.114;2022-10-22T14:31:10;23.70;82.30
9125;DHT22;4597;48.730;9.114;2022-10-22T14:33:36;24.00;79.00
9125;DHT22;4597;48.730;9.114;2022-10-22T14:36:02;24.10;73.60
9125;DHT22;4597;48.730;9.114;2022-10-22T14:38:28;24.20;76.60
9125;DHT22;4597;48.730;9.114;2022-10-22T14:40:53;24.30;75.30
9125;DHT22;4597;48.730;9.114;2022-10-22T14:43:22;24.20;79.50
9125;DHT22;4597;48.730;9.114;2022-10-22T14:45:48;24.30;76.50
9125;DHT22;4597;48.730;9.114;2022-10-22T14:48:13;24.40;77.40
9125;DHT22;4597;48.730;9.114;2022-10-22T14:50:41;24.40;79.50
9125;DHT22;4597;48.730;9.114;2022-10-22T14:53:06;24.60;79.70
9125;DHT22;4597;48.730;9.114;2022-10-22T14:55:32;24.80;77.60
9125;DHT22;4597;48.730;9.114;2022-10-22T14:57:58;24.90;77.40
9125;DHT22;4597;48.730;9.114;2022-10-22T15:00:23;25.00;77.90
9125;DHT22;4597;48.730;9.114;2022-10-22T15:02:49;25.10;78.90
9125;DHT22;4597;48.730;9.114;2022-10-22T15:05:15;25.00;76.40
9125;DHT22;4597;48.730;9.114;2022-10-22T15:07:42;25.10;75.30
9125;DHT22;4597;48.730;9.114;2022-10-22T15:10:08;25.10;74.80
9125;DHT22;4597;48.730;9.114;2022-10-22T15:12:34;25.00;74.30
9125;DHT22;4597;48.730;9.114;2022-10-22T15:15:00;25.10;75.30
9125;DHT22;4597;48.730;9.114;2022-10-22T15:17:25;25.10;76.60
9125;DHT22;4597;48.730;9.114;2022-10-22T15:19:51;25.10;77.20
9125;DHT22;4597;48.730;9.114;2022-10-22T15:22:17;25.10;75.40
9125;DHT22;4597;48.730;9.114;2022-10-22T15:24:44;25.20;79.10
9125;DHT22;4597;48.730;9.114;2022-10-22T15:27:11;25.10;78.40
9125;DHT22;4597;48.730;9.114;2022-10-22T15:29:39;25.00;78.10
9125;DHT22;4597;48.730;9.114;2022-10-22T15:32:04;24.90;78.10
9125;DHT22;4597;48.730;9.114;2022-10-22T15:34:32;24.60;82.80
9125;DHT22;4597;48.730;9.114;2022-10-22T15:37:00;24.40;84.50
9125;DHT22;4597;48.730;9.114;2022-10-22T15:39:26;24.20;86.80
9125;DHT22;4597;48.730;9.114;2022-10-22T15:41:52;24.00;87.30
9125;DHT22;4597;48.730;9.114;2022-10-22T15:44:24;23.70;89.80
9125;DHT22;4597;48.730;9.114;2022-10-22T15:46:50;23.40;91.00
9125;DHT22;4597;48.730;9.114;2022-10-22T15:49:17;23.10;92.90
9125;DHT22;4597;48.730;9.114;2022-10-22T15:51:43;22.80;93.90
9125;DHT22;4597;48.730;9.114;2022-10-22T15:54:13;22.30;94.80
9125;DHT22;4597;48.730;9.114;2022-10-22T15:56:39;21.90;96.40
9125;DHT22;4597;48.730;9.114;2022-10-22T15:59:05;21.60;98.60
9125;DHT22;4597;48.730;9.114;2022-10-22T16:01:32;21.20;99.90
9125;DHT22;4597;48.730;9.114;2022-10-22T16:03:58;20.90;99.90
9125;DHT22;4597;48.730;9.114;2022-10-22T16:06:29;20.60;99.90
9125;DHT22;4597;48.730;9.114;2022-10-22T16:08:56;20.30;99.90
9125;DHT22;4597;48.730;9.114;2022-10-22T16:11:23;20.10;99.90
9125;DHT22;4597;48.730;9.114;2022-10-22T16:13:52;20.00;99.90
9125;DHT22;4597;48.730;9.114;2022-10-22T16:16:20;19.90;99.90
9125;DHT22;4597;48.730;9.114;2022-10-22T16:18:46;19.70;99.90
9125;DHT22;4597;48.730;9.114;2022-10-22T16:21:12;19.50;99.90
9125;DHT22;4597;48.730;9.114;2022-10-22T16:23:39;19.40;99.90
9125;DHT22;4597;48.730;9.114;2022-10-22T16:26:05;19.40;99.90
9125;DHT22;4597;48.730;9.114;2022-10-22T16:28:30;19.10;99.90
9125;DHT22;4597;48.730;9.114;2022-10-22T16:31:00;19.00;99.90
9125;DHT22;4597;48.730;9.114;2022-10-22T16:33:26;18.80;99.90
9125;DHT22;4597;48.730;9.114;2022-10-22T16:35:51;18.70;99.90
9125;DHT22;4597;48.730;9.114;2022-10-22T16:38:17;18.70;99.90
9125;DHT22;4597;48.730;9.114;2022-10-22T16:40:43;18.60;99.90
9125;DHT22;4597;48.730;9.114;2022-10-22T16:43:08;18.50;99.90
9125;DHT22;4597;48.730;9.114;2022-10-22T16:45:34;18.40;99.90
9125;DHT22;4597;48.730;9.114;2022-10-22T16:47:59;18.30;99.90
9125;DHT22;4597;48.730;9.114;2022-10-22T16:50:25;18.10;99.90
9125;DHT22;4597;48.730;9.114;2022-10-22T16:52:51;18.00;99.90
9125;DHT22;4597;48.730;9.114;2022-10-22T16:55:16;17.80;99.90
9125;DHT22;4597;48.730;9.114;2022-10-22T16:57:42;17.70;99.90
9125;DHT22;4597;48.730;9.114;2022-10-22T17:00:08;17.50;99.90
9125;DHT22;4597;48.730;9.114;2022-10-22T17:02:34;17.40;99.90
9125;DHT22;4597;48.730;9.114;2022-10-22T17:05:01;17.40;99.90
9125;DHT22;4597;48.730;9.114;2022-10-22T17:07:27;17.40;99.90
9125;DHT22;4597;48.730;9.114;2022-10-22T17:09:52;17.30;99.90
9125;DHT22;4597;48.730;9.114;2022-10-22T17:12:18;17.30;99.90
9125;DHT22;4597;48.730;9.114;2022-10-22T17:14:44;17.20;99.90
9125;DHT22;4597;48.730;9.114;2022-10-22T17:17:09;17.20;99.90
9125;DHT22;4597;48.730;9.114;2022-10-22T17:19:34;17.20;99.90
9125;DHT22;4597;48.730;9.114;2022-10-22T17:22:03;17.10;99.90
9125;DHT22;4597;48.730;9.114;2022-10-22T17:24:28;17.00;99.90
9125;DHT22;4597;48.730;9.114;2022-10-22T17:26:54;16.90;99.90
9125;DHT22;4597;48.730;9.114;2022-10-22T17:29:19;16.80;99.90
9125;DHT22;4597;48.730;9.114;2022-10-22T17:31:46;16.70;99.90
9125;DHT22;4597;48.730;9.114;2022-10-22T17:34:15;16.60;99.90
9125;DHT22;4597;48.730;9.114;2022-10-22T17:36:41;16.60;99.90
9125;DHT22;4597;48.730;9.114;2022-10-22T17:39:07;16.60;99.90
9125;DHT22;4597;48.730;9.114;2022-10-22T17:41:34;16.60;99.90
9125;DHT22;4597;48.730;9.114;2022-10-22T17:44:02;16.60;99.90
9125;DHT22;4597;48.730;9.114;2022-10-22T17:46:29;16.50;99.90